Time;durP1;ratioP1;P1;durP2;ratioP2;P2;SDS_P1;SDS_P2;PMS_P1;PMS_P2;Temp;Humidity;BMP_temperature;BMP_pressure;BME280_temperature;BME280_humidity;BME280_pressure;Samples;Min_cycle;Max_cycle;Signal;HPM_P1;HPM_P2
2023/01/28 00:01:13;;;;;;;;;19.75;17.50;;;;;7.97;100.00;102413.03;5051232;28;45335;-73
2023/01/28 00:03:39;;;;;;;;;20.50;18.25;;;;;7.99;100.00;102421.00;5057828;28;45343;-72
2023/01/28 00:06:07;;;;;;;;;14.50;12.50;;;;;7.97;100.00;102415.66;5057047;28;50528;-75
2023/01/28 00:08:32;;;;;;;;;26.00;21.50;;;;;7.95;100.00;102413.81;5057068;28;45667;-72
2023/01/28 00:10:59;;;;;;;;;16.25;13.00;;;;;7.97;100.00;102420.03;5026437;28;60182;-72
2023/01/28 00:13:25;;;;;;;;;19.25;16.00;;;;;7.96;100.00;102418.25;5039257;28;45370;-72
2023/01/28 00:15:59;;;;;;;;;15.75;13.25;;;;;7.95;100.00;102422.59;5052264;28;45317;-73
2023/01/28 00:18:27;;;;;;;;;18.75;16.75;;;;;7.94;100.00;102412.91;5048553;28;46026;-73
2023/01/28 00:21:00;;;;;;;;;18.50;12.00;;;;;7.95;100.00;102416.44;5032844;28;45946;-72
2023/01/28 00:23:26;;;;;;;;;18.00;11.00;;;;;7.95;100.00;102411.19;5037866;28;45553;-72
2023/01/28 00:25:53;;;;;;;;;24.75;12.75;;;;;7.93;100.00;102411.09;5029971;28;45420;-74
2023/01/28 00:28:18;;;;;;;;;16.00;14.25;;;;;7.96;100.00;102407.72;5038897;28;45749;-74
2023/01/28 00:30:44;;;;;;;;;16.75;14.50;;;;;7.95;100.00;102412.09;5039108;28;45392;-74
2023/01/28 00:33:09;;;;;;;;;22.25;12.50;;;;;7.94;100.00;102412.03;5056431;28;54860;-74
2023/01/28 00:35:34;;;;;;;;;14.75;12.25;;;;;7.93;100.00;102410.19;5055960;28;45646;-74
2023/01/28 00:38:03;;;;;;;;;11.50;7.50;;;;;7.93;100.00;102404.94;5056251;28;58898;-75
2023/01/28 00:40:28;;;;;;;;;19.50;12.00;;;;;7.94;100.00;102409.38;5038029;28;46000;-75
2023/01/28 00:42:53;;;;;;;;;13.25;12.75;;;;;7.94;100.00;102402.41;5039036;28;45678;-72
2023/01/28 00:45:19;;;;;;;;;16.00;14.25;;;;;7.93;100.00;102394.41;5055746;28;45474;-73
2023/01/28 00:47:44;;;;;;;;;26.25;16.75;;;;;7.92;100.00;102404.03;5056961;28;46785;-74
2023/01/28 00:50:10;;;;;;;;;16.75;12.50;;;;;7.93;100.00;102399.66;5054873;28;45454;-72
2023/01/28 00:52:35;;;;;;;;;15.25;11.50;;;;;7.95;100.00;102405.94;5029846;28;48650;-73
2023/01/28 00:55:02;;;;;;;;;11.00;8.75;;;;;7.92;100.00;102406.66;5047049;28;45381;-72
2023/01/28 00:57:27;;;;;;;;;14.75;11.50;;;;;7.92;100.00;102406.66;5052487;28;47258;-71
2023/01/28 00:59:53;;;;;;;;;13.00;10.25;;;;;7.92;100.00;102397.88;5054435;28;45280;-73
2023/01/28 01:02:18;;;;;;;;;16.00;10.50;;;;;7.95;100.00;102409.44;5051974;28;52195;-71
2023/01/28 01:04:53;;;;;;;;;14.50;10.00;;;;;7.94;100.00;102410.28;5042645;28;52948;-71
2023/01/28 01:07:20;;;;;;;;;13.00;12.25;;;;;7.94;100.00;102412.91;5055210;28;46616;-71
2023/01/28 01:09:46;;;;;;;;;15.50;10.50;;;;;7.94;100.00;102405.03;5055788;28;45273;-71
2023/01/28 01:12:11;;;;;;;;;14.25;10.75;;;;;7.93;100.00;102405.81;5037143;28;53830;-72
2023/01/28 01:14:36;;;;;;;;;17.50;14.25;;;;;7.94;100.00;102414.66;5036953;28;45615;-71
2023/01/28 01:17:02;;;;;;;;;14.75;11.00;;;;;7.95;100.00;102427.88;5055346;28;55792;-72
2023/01/28 01:19:28;;;;;;;;;7.25;6.25;;;;;7.94;100.00;102412.03;5020455;28;62939;-71
2023/01/28 01:21:55;;;;;;;;;16.75;10.75;;;;;7.93;100.00;102421.59;5056011;28;45410;-71
2023/01/28 01:24:20;;;;;;;;;14.25;12.50;;;;;7.93;100.00;102424.25;5035776;28;45445;-71
2023/01/28 01:26:46;;;;;;;;;15.00;11.00;;;;;7.92;100.00;102411.03;5048995;28;58668;-72
2023/01/28 01:29:11;;;;;;;;;18.00;12.00;;;;;7.91;100.00;102415.38;5023693;28;52203;-71
2023/01/28 01:31:36;;;;;;;;;9.00;9.00;;;;;7.92;100.00;102419.81;5012223;28;45475;-71
2023/01/28 01:34:02;;;;;;;;;12.25;9.75;;;;;7.94;100.00;102433.06;5016976;28;45479;-71
2023/01/28 01:36:27;;;;;;;;;16.75;12.25;;;;;7.92;100.00;102426.81;5053995;28;50562;-73
2023/01/28 01:38:53;;;;;;;;;15.25;10.50;;;;;7.92;100.00;102425.06;5037303;28;56981;-72
2023/01/28 01:41:30;;;;;;;;;15.50;12.75;;;;;7.95;100.00;102433.13;5036662;28;45459;-71
2023/01/28 01:44:01;;;;;;;;;11.25;11.00;;;;;7.95;100.00;102426.97;5038278;28;45513;-71
2023/01/28 01:46:31;;;;;;;;;17.25;12.00;;;;;7.94;100.00;102422.53;5020114;28;47610;-73
2023/01/28 01:49:05;;;;;;;;;17.75;11.75;;;;;7.95;100.00;102425.22;5053128;28;45394;-71
2023/01/28 01:51:33;;;;;;;;;20.00;16.00;;;;;7.94;100.00;102428.69;5033845;28;45319;-71
2023/01/28 01:53:59;;;;;;;;;11.00;10.25;;;;;7.96;100.00;102429.66;5034943;28;45612;-72
2023/01/28 01:56:29;;;;;;;;;14.75;8.50;;;;;7.91;100.00;102415.38;5054600;28;63080;-71
2023/01/28 01:58:55;;;;;;;;;17.75;13.50;;;;;7.93;100.00;102424.25;5038073;28;45653;-71
2023/01/28 02:01:25;;;;;;;;;12.25;10.75;;;;;7.94;100.00;102422.53;5036921;28;45345;-72
2023/01/28 02:04:03;;;;;;;;;15.75;11.75;;;;;7.96;100.00;102431.38;5025570;28;45643;-73
2023/01/28 02:06:29;;;;;;;;;15.75;10.75;;;;;7.95;100.00;102432.22;5030133;28;45404;-72
2023/01/28 02:08:55;;;;;;;;;12.25;10.00;;;;;7.91;100.00;102427.63;5036458;28;57454;-70
2023/01/28 02:11:24;;;;;;;;;18.25;12.00;;;;;7.90;100.00;102434.63;5023009;28;45327;-71
2023/01/28 02:13:53;;;;;;;;;11.50;11.00;;;;;7.91;100.00;102422.38;5035402;28;45495;-71
2023/01/28 02:16:18;;;;;;;;;13.75;9.75;;;;;7.91;100.00;102427.63;5037625;28;46857;-71
2023/01/28 02:18:44;;;;;;;;;13.75;9.75;;;;;7.91;100.00;102431.16;5047614;28;50304;-73
2023/01/28 02:21:24;;;;;;;;;15.50;12.00;;;;;7.91;100.00;102427.63;5033838;28;53050;-70
2023/01/28 02:23:58;;;;;;;;;16.00;12.25;;;;;7.91;100.00;102430.28;5045441;28;45206;-73
2023/01/28 02:26:51;;;;;;;;;18.25;14.75;;;;;7.91;100.00;102431.16;5055791;28;45556;-71
2023/01/28 02:29:19;;;;;;;;;16.50;13.00;;;;;7.90;100.00;102423.22;5044554;28;45285;-71
2023/01/28 02:32:19;;;;;;;;;17.75;11.50;;;;;7.88;100.00;102424.06;5047425;28;46780;-71
2023/01/28 02:34:49;;;;;;;;;9.75;9.75;;;;;7.83;100.00;102422.94;5050299;28;45253;-71
2023/01/28 02:37:39;;;;;;;;;11.25;10.00;;;;;7.83;100.00;102440.44;5054735;28;46708;-73
2023/01/28 02:40:11;;;;;;;;;14.25;10.50;;;;;7.81;100.00;102435.09;5033869;28;45336;-72
2023/01/28 02:42:38;;;;;;;;;14.50;12.50;;;;;7.78;100.00;102434.06;5055922;28;45443;-71
2023/01/28 02:48:20;;;;;;;;;17.00;11.00;;;;;7.80;100.00;102433.28;5036677;28;45316;-71
2023/01/28 02:50:54;;;;;;;;;15.00;6.75;;;;;7.78;100.00;102428.78;5033316;28;45399;-73
2023/01/28 02:53:45;;;;;;;;;12.50;12.50;;;;;7.78;100.00;102431.44;5036978;28;45313;-71
2023/01/28 02:56:37;;;;;;;;;16.25;12.25;;;;;7.78;100.00;102434.06;5035961;28;45621;-70
2023/01/28 02:59:32;;;;;;;;;12.75;11.25;;;;;7.75;100.00;102432.16;5037333;28;46553;-71
2023/01/28 03:02:19;;;;;;;;;17.75;13.50;;;;;7.75;100.00;102439.16;5052319;28;45217;-72
2023/01/28 03:05:06;;;;;;;;;14.50;11.00;;;;;7.76;100.00;102430.44;5053718;28;45573;-71
2023/01/28 03:07:34;;;;;;;;;12.33;10.67;;;;;7.75;100.00;102434.78;5036108;28;45377;-74
2023/01/28 03:10:03;;;;;;;;;18.00;12.00;;;;;7.74;100.00;102434.72;5046902;28;45794;-70
2023/01/28 03:38:17;;;;;;;;;11.00;10.50;;;;;7.67;100.00;102454.56;5041634;28;45840;-71
2023/01/28 03:41:00;;;;;;;;;20.25;16.25;;;;;7.69;100.00;102471.31;5037089;28;45435;-72
2023/01/28 03:43:26;;;;;;;;;10.75;10.00;;;;;7.67;100.00;102464.16;5034159;28;45795;-71
2023/01/28 03:45:51;;;;;;;;;18.50;13.00;;;;;7.68;100.00;102461.63;5037442;28;45523;-71
2023/01/28 03:48:22;;;;;;;;;12.50;10.75;;;;;7.67;100.00;102462.47;5053799;28;45735;-73
2023/01/28 03:50:48;;;;;;;;;18.25;14.00;;;;;7.71;100.00;102471.38;5054614;28;45422;-70
2023/01/28 03:53:14;;;;;;;;;15.00;8.50;;;;;7.68;100.00;102464.25;5037723;28;46789;-71
2023/01/28 03:55:41;;;;;;;;;15.50;10.25;;;;;7.69;100.00;102462.53;5052661;28;45371;-72
2023/01/28 03:58:07;;;;;;;;;18.75;12.50;;;;;7.72;100.00;102474.06;5036754;28;45606;-73
2023/01/28 04:00:32;;;;;;;;;18.50;13.75;;;;;7.72;100.00;102475.81;5032028;28;45535;-71
2023/01/28 04:02:58;;;;;;;;;16.00;14.75;;;;;7.70;100.00;102470.47;5022859;28;47560;-72
2023/01/28 04:05:24;;;;;;;;;16.75;10.75;;;;;7.71;100.00;102471.38;5056486;28;59558;-72
2023/01/28 04:07:53;;;;;;;;;14.00;14.00;;;;;7.71;100.00;102472.28;5035369;28;45554;-73
2023/01/28 04:10:19;;;;;;;;;21.50;14.50;;;;;7.70;100.00;102478.38;5037718;28;45320;-71
2023/01/28 04:12:44;;;;;;;;;18.25;13.50;;;;;7.71;100.00;102474.00;5054219;28;45821;-71
2023/01/28 04:15:16;;;;;;;;;19.00;13.75;;;;;7.72;100.00;102478.44;5051011;28;53038;-72
2023/01/28 04:17:48;;;;;;;;;11.25;11.25;;;;;7.73;100.00;102489.03;5052903;28;45241;-71
2023/01/28 04:20:14;;;;;;;;;14.00;11.75;;;;;7.73;100.00;102481.16;5049636;28;45407;-71
2023/01/28 04:22:40;;;;;;;;;16.00;12.50;;;;;7.74;100.00;102484.69;5056017;28;45733;-71
2023/01/28 04:25:05;;;;;;;;;12.00;11.50;;;;;7.73;100.00;102481.16;5036689;28;45358;-71
2023/01/28 04:27:31;;;;;;;;;16.25;13.00;;;;;7.75;100.00;102492.63;5037063;28;45519;-73
2023/01/28 04:29:56;;;;;;;;;16.50;11.75;;;;;7.77;100.00;102496.22;5051906;28;45371;-71
2023/01/28 04:32:22;;;;;;;;;18.25;12.75;;;;;7.77;100.00;102493.59;5053599;28;45331;-72
2023/01/28 04:34:47;;;;;;;;;15.00;12.50;;;;;7.79;100.00;102496.34;5047606;28;49930;-71
2023/01/28 04:37:12;;;;;;;;;15.50;10.25;;;;;7.77;100.00;102501.50;5033029;28;55610;-71
2023/01/28 04:39:38;;;;;;;;;19.75;12.00;;;;;7.78;100.00;102508.59;5051065;28;45446;-71
2023/01/28 04:42:03;;;;;;;;;20.75;15.00;;;;;7.79;100.00;102501.59;5038008;28;60407;-71
2023/01/28 04:44:28;;;;;;;;;17.00;13.75;;;;;7.76;100.00;102497.06;5053732;28;45204;-71
2023/01/28 04:46:54;;;;;;;;;15.25;13.50;;;;;7.75;100.00;102508.41;5035179;28;53055;-71
2023/01/28 04:49:19;;;;;;;;;21.25;14.50;;;;;7.72;100.00;102499.47;5051318;28;45565;-72
2023/01/28 04:51:44;;;;;;;;;20.75;14.00;;;;;7.72;100.00;102499.47;5054987;28;58711;-71
2023/01/28 04:54:10;;;;;;;;;17.75;12.00;;;;;7.69;100.00;102510.75;5054966;28;56420;-71
2023/01/28 04:56:35;;;;;;;;;20.00;16.00;;;;;7.67;100.00;102511.47;5053643;28;45180;-71
2023/01/28 04:59:01;;;;;;;;;15.25;11.75;;;;;7.66;100.00;102505.31;5056649;28;50741;-73
2023/01/28 05:01:27;;;;;;;;;16.50;13.25;;;;;7.68;100.00;102513.31;5052590;28;45591;-71
2023/01/28 05:03:53;;;;;;;;;20.25;15.75;;;;;7.67;100.00;102508.84;5038365;28;45317;-72
2023/01/28 05:06:18;;;;;;;;;20.25;16.50;;;;;7.66;100.00;102504.41;5045241;28;45490;-72
2023/01/28 05:08:45;;;;;;;;;25.25;17.25;;;;;7.69;100.00;102508.13;5056390;28;45424;-71
2023/01/28 05:11:10;;;;;;;;;15.75;14.25;;;;;7.66;100.00;102500.06;5055420;28;46411;-73
2023/01/28 05:13:36;;;;;;;;;18.00;12.50;;;;;7.66;100.00;102507.94;5050485;28;45637;-72
2023/01/28 05:16:01;;;;;;;;;14.00;10.75;;;;;7.67;100.00;102514.09;5052597;28;45576;-71
2023/01/28 05:18:26;;;;;;;;;17.25;15.75;;;;;7.65;100.00;102506.16;5028405;28;45459;-71
2023/01/28 05:20:52;;;;;;;;;18.00;15.00;;;;;7.66;100.00;102505.31;5050083;28;62797;-73
2023/01/28 05:23:17;;;;;;;;;18.00;11.25;;;;;7.66;100.00;102509.69;5055036;28;45336;-70
2023/01/28 05:25:42;;;;;;;;;17.75;14.00;;;;;7.68;100.00;102508.06;5047841;28;50999;-71
2023/01/28 05:28:08;;;;;;;;;14.75;14.75;;;;;7.67;100.00;102516.72;5055272;28;53954;-71
2023/01/28 05:30:33;;;;;;;;;15.50;11.25;;;;;7.70;100.00;102527.41;5056488;28;46422;-74
2023/01/28 05:32:58;;;;;;;;;20.25;15.00;;;;;7.69;100.00;102530.88;5052433;28;57209;-71
2023/01/28 05:35:24;;;;;;;;;19.00;13.00;;;;;7.69;100.00;102523.88;5053761;28;53190;-73
2023/01/28 05:37:50;;;;;;;;;15.50;11.00;;;;;7.69;100.00;102529.16;5054631;28;52116;-73
2023/01/28 05:40:16;;;;;;;;;20.25;15.25;;;;;7.71;100.00;102529.22;5055798;28;48814;-71
2023/01/28 05:42:41;;;;;;;;;20.00;17.25;;;;;7.72;100.00;102528.38;5037704;28;45526;-72
2023/01/28 05:45:07;;;;;;;;;18.75;15.00;;;;;7.67;100.00;102522.94;5037815;28;45499;-71
2023/01/28 05:47:33;;;;;;;;;10.75;8.50;;;;;7.68;100.00;102526.47;5048392;28;45484;-71
2023/01/28 05:49:58;;;;;;;;;14.00;11.25;;;;;7.67;100.00;102522.00;5050924;28;45830;-71
2023/01/28 05:52:24;;;;;;;;;23.00;18.50;;;;;7.67;100.00;102532.50;5049882;28;45684;-71
2023/01/28 05:54:49;;;;;;;;;18.75;14.00;;;;;7.68;100.00;102524.72;5038532;28;45834;-71
2023/01/28 05:57:14;;;;;;;;;30.00;17.25;;;;;7.66;100.00;102518.47;5034150;28;45268;-71
2023/01/28 05:59:40;;;;;;;;;19.50;11.75;;;;;7.70;100.00;102538.84;5049889;28;57274;-71
2023/01/28 06:02:05;;;;;;;;;17.00;14.75;;;;;7.71;100.00;102531.84;5055006;28;45420;-70
2023/01/28 06:04:30;;;;;;;;;22.25;15.75;;;;;7.70;100.00;102528.31;5055654;28;48154;-72
2023/01/28 06:06:56;;;;;;;;;15.75;14.25;;;;;7.69;100.00;102529.16;5055489;28;53118;-71
2023/01/28 06:09:21;;;;;;;;;18.75;11.50;;;;;7.67;100.00;102533.44;5036955;28;61327;-71
2023/01/28 06:11:47;;;;;;;;;18.75;12.25;;;;;7.70;100.00;102536.19;5053685;28;45369;-71
2023/01/28 06:14:12;;;;;;;;;13.75;11.50;;;;;7.69;100.00;102529.16;5055575;28;45376;-71
2023/01/28 06:16:37;;;;;;;;;22.50;15.25;;;;;7.70;100.00;102545.81;5051978;28;45540;-71
2023/01/28 06:19:03;;;;;;;;;17.75;12.25;;;;;7.66;100.00;102542.13;5049443;28;56458;-72
2023/01/28 06:21:28;;;;;;;;;17.00;13.75;;;;;7.66;100.00;102542.13;5053220;28;45422;-73
2023/01/28 06:23:53;;;;;;;;;20.25;13.75;;;;;7.66;100.00;102547.38;5044136;28;51837;-73
2023/01/28 06:26:19;;;;;;;;;22.25;15.75;;;;;7.63;100.00;102549.88;5032138;28;51920;-70
2023/01/28 06:28:44;;;;;;;;;15.00;11.00;;;;;7.61;100.00;102535.72;5048504;28;45395;-73
2023/01/28 06:31:09;;;;;;;;;15.75;15.50;;;;;7.65;100.00;102557.84;5054383;28;53556;-73
2023/01/28 06:33:35;;;;;;;;;20.00;13.50;;;;;7.64;100.00;102559.56;5054157;28;53811;-71
2023/01/28 06:36:05;;;;;;;;;21.25;13.75;;;;;7.63;100.00;102554.25;5032469;28;45202;-71
2023/01/28 06:38:30;;;;;;;;;28.00;15.25;;;;;7.64;100.00;102556.03;5034461;28;46829;-71
2023/01/28 06:40:57;;;;;;;;;17.25;12.50;;;;;7.63;100.00;102557.75;5053318;28;45309;-71
2023/01/28 06:43:26;;;;;;;;;15.50;14.00;;;;;7.65;100.00;102565.72;5048272;28;45195;-71
2023/01/28 06:45:56;;;;;;;;;16.25;12.25;;;;;7.66;100.00;102571.03;5051348;28;45471;-73
2023/01/28 06:48:21;;;;;;;;;19.75;12.00;;;;;7.67;100.00;102578.13;5051920;28;45952;-71
2023/01/28 06:50:47;;;;;;;;;19.25;11.25;;;;;7.65;100.00;102577.13;5033447;28;45325;-71
2023/01/28 06:53:13;;;;;;;;;19.00;14.50;;;;;7.65;100.00;102579.75;5052048;28;45311;-74
2023/01/28 06:55:38;;;;;;;;;17.75;11.50;;;;;7.61;100.00;102576.06;5040393;28;45562;-71
2023/01/28 06:58:04;;;;;;;;;15.50;11.50;;;;;7.61;100.00;102573.44;5055981;28;60692;-71
2023/01/28 07:00:29;;;;;;;;;20.25;14.00;;;;;7.60;100.00;102569.00;5052995;28;45343;-73
2023/01/28 07:02:58;;;;;;;;;19.00;15.00;;;;;7.62;100.00;102577.00;5055199;28;45336;-72
2023/01/28 07:05:24;;;;;;;;;15.25;11.75;;;;;7.61;100.00;102578.69;5052472;28;45359;-71
2023/01/28 07:07:49;;;;;;;;;21.50;15.50;;;;;7.63;100.00;102575.28;5052957;28;45702;-73
2023/01/28 07:10:15;;;;;;;;;16.00;11.00;;;;;7.59;100.00;102575.09;5038377;28;45530;-74
2023/01/28 07:12:40;;;;;;;;;16.25;12.00;;;;;7.62;100.00;102582.25;5155855;23;46130;-71
2023/01/28 07:15:06;;;;;;;;;12.25;9.25;;;;;7.61;100.00;102575.16;5076137;28;45549;-73
2023/01/28 07:17:32;;;;;;;;;21.00;11.50;;;;;7.60;100.00;102576.00;5046822;28;47671;-71
2023/01/28 07:19:57;;;;;;;;;20.00;12.50;;;;;7.60;100.00;102576.91;5068961;28;58909;-71
2023/01/28 07:22:22;;;;;;;;;20.50;10.00;;;;;7.60;100.00;102582.16;5072926;28;53447;-71
2023/01/28 07:24:48;;;;;;;;;15.00;13.75;;;;;7.59;100.00;102582.09;5075415;28;52991;-73
2023/01/28 07:27:13;;;;;;;;;17.50;15.00;;;;;7.58;100.00;102588.16;5069712;28;46860;-73
2023/01/28 07:29:39;;;;;;;;;16.25;13.00;;;;;7.58;100.00;102593.44;5058555;28;45468;-73
2023/01/28 07:32:06;;;;;;;;;12.00;7.75;;;;;7.56;100.00;102589.81;5078047;28;56692;-75
2023/01/28 07:34:31;;;;;;;;;20.25;15.00;;;;;7.56;100.00;102593.38;5059444;28;45501;-73
2023/01/28 07:36:57;;;;;;;;;18.00;16.75;;;;;7.54;100.00;102591.47;5069955;28;46102;-74
2023/01/28 07:39:22;;;;;;;;;19.50;14.50;;;;;7.54;100.00;102592.34;5055644;28;57327;-73
2023/01/28 07:41:47;;;;;;;;;15.25;12.75;;;;;7.55;100.00;102598.50;5071570;28;45438;-75
2023/01/28 07:44:13;;;;;;;;;22.50;15.50;;;;;7.55;100.00;102606.41;5073476;28;56178;-73
2023/01/28 07:46:38;;;;;;;;;16.25;13.75;;;;;7.52;100.00;102608.88;5066704;28;51277;-74
2023/01/28 07:49:03;;;;;;;;;16.75;14.50;;;;;7.55;100.00;102609.03;5076192;28;45536;-74
2023/01/28 07:51:29;;;;;;;;;24.25;20.00;;;;;7.55;100.00;102604.66;5078353;28;45319;-74
2023/01/28 07:53:54;;;;;;;;;26.00;20.25;;;;;7.56;100.00;102611.75;5059813;28;53118;-74
2023/01/28 07:56:19;;;;;;;;;18.50;11.75;;;;;7.57;100.00;102610.03;5059706;28;46055;-72
2023/01/28 07:58:48;;;;;;;;;16.75;13.50;;;;;7.59;100.00;102614.53;5076110;28;55515;-73
2023/01/28 08:01:14;;;;;;;;;21.50;15.00;;;;;7.61;100.00;102618.13;5058077;28;45577;-72
2023/01/28 08:03:39;;;;;;;;;15.00;14.75;;;;;7.62;100.00;102608.53;5077816;28;51865;-72
2023/01/28 08:06:04;;;;;;;;;15.25;12.25;;;;;7.67;100.00;102619.28;5074796;28;60496;-72
2023/01/28 08:08:30;;;;;;;;;15.50;10.75;;;;;7.65;100.00;102608.69;5057102;28;45690;-72
2023/01/28 08:10:55;;;;;;;;;17.00;12.50;;;;;7.67;100.00;102617.56;5072530;28;45557;-73
2023/01/28 08:13:21;;;;;;;;;22.00;14.50;;;;;7.67;100.00;102612.31;5053106;28;45220;-74
2023/01/28 08:15:46;;;;;;;;;17.25;14.50;;;;;7.71;100.00;102622.13;5076270;28;46273;-72
2023/01/28 08:18:13;;;;;;;;;21.50;18.75;;;;;7.74;100.00;102624.94;5063258;28;45503;-73
2023/01/28 08:20:40;;;;;;;;;18.50;15.25;;;;;7.75;100.00;102629.38;5067285;28;45911;-72
2023/01/28 08:23:15;;;;;;;;;17.00;14.50;;;;;7.79;100.00;102635.69;5076315;28;45425;-74
2023/01/28 08:25:40;;;;;;;;;24.00;16.00;;;;;7.80;100.00;102638.41;5066716;28;47432;-72
2023/01/28 08:28:06;;;;;;;;;25.75;19.25;;;;;7.81;100.00;102636.66;5058684;28;45718;-73
2023/01/28 08:30:32;;;;;;;;;22.00;14.50;;;;;7.84;100.00;102635.09;5053931;28;45454;-73
2023/01/28 08:32:58;;;;;;;;;23.25;19.25;;;;;7.87;100.00;102639.59;5058000;28;45370;-73
2023/01/28 08:35:25;;;;;;;;;16.00;15.75;;;;;7.88;100.00;102642.34;5077229;28;46237;-72
2023/01/28 08:37:50;;;;;;;;;19.50;17.25;;;;;7.88;100.00;102636.13;5056585;28;45490;-73
2023/01/28 08:40:16;;;;;;;;;22.00;15.75;;;;;7.90;100.00;102645.03;5069480;28;45559;-73
2023/01/28 08:42:52;;;;;;;;;11.50;8.25;;;;;7.91;100.00;102649.47;5072306;28;45332;-74
2023/01/28 08:45:21;;;;;;;;;24.00;19.25;;;;;7.94;100.00;102652.25;5052434;28;48279;-73
2023/01/28 08:47:58;;;;;;;;;18.25;13.50;;;;;7.96;100.00;102653.22;5074285;28;45488;-73
2023/01/28 08:50:25;;;;;;;;;19.75;15.75;;;;;7.98;100.00;102661.19;5074591;28;45509;-73
2023/01/28 08:52:56;;;;;;;;;20.50;14.75;;;;;7.96;100.00;102652.34;5055127;28;45171;-73
2023/01/28 08:55:21;;;;;;;;;14.75;11.75;;;;;7.98;100.00;102659.47;5075390;28;46145;-73
2023/01/28 08:57:47;;;;;;;;;18.00;14.50;;;;;8.01;100.00;102667.53;5071904;28;45464;-73
2023/01/28 09:00:13;;;;;;;;;17.00;11.75;;;;;7.98;100.00;102654.19;5057906;28;49443;-74
2023/01/28 09:02:38;;;;;;;;;23.00;15.50;;;;;8.00;100.00;102663.09;5076718;28;45433;-75
2023/01/28 09:05:05;;;;;;;;;21.00;12.25;;;;;8.02;100.00;102658.78;5058013;28;47427;-74
2023/01/28 09:07:30;;;;;;;;;14.75;11.00;;;;;8.02;100.00;102663.16;5076367;28;45456;-73
2023/01/28 09:09:56;;;;;;;;;19.00;12.00;;;;;8.03;100.00;102665.84;5056433;28;45493;-73
2023/01/28 09:12:21;;;;;;;;;17.50;14.00;;;;;8.02;100.00;102665.78;5076115;28;46594;-73
2023/01/28 09:14:47;;;;;;;;;26.75;16.25;;;;;8.04;100.00;102672.94;5058356;28;46710;-72
2023/01/28 09:17:12;;;;;;;;;23.00;15.50;;;;;8.05;100.00;102679.13;5075947;28;53190;-72
2023/01/28 09:19:37;;;;;;;;;19.50;12.25;;;;;8.05;100.00;102673.84;5069357;28;55103;-73
2023/01/28 09:22:03;;;;;;;;;17.25;12.00;;;;;8.06;100.00;102681.81;5073862;28;45456;-72
2023/01/28 09:24:28;;;;;;;;;15.25;12.50;;;;;8.08;100.00;102674.00;5062602;28;47242;-72
2023/01/28 09:26:54;;;;;;;;;22.75;15.50;;;;;8.07;100.00;102680.97;5073117;28;45378;-74
2023/01/28 09:29:19;;;;;;;;;15.25;14.50;;;;;8.06;100.00;102678.28;5073770;28;45533;-74
2023/01/28 09:31:44;;;;;;;;;21.00;15.50;;;;;8.10;100.00;102688.16;5073219;28;45602;-75
2023/01/28 09:34:10;;;;;;;;;21.00;14.75;;;;;8.11;100.00;102687.31;5055075;28;47382;-71
2023/01/28 09:36:35;;;;;;;;;17.25;16.00;;;;;8.11;100.00;102684.69;5075203;28;45550;-74
2023/01/28 09:39:01;;;;;;;;;20.25;15.50;;;;;8.12;100.00;102687.38;5052923;28;50540;-78
2023/01/28 09:41:32;;;;;;;;;17.25;11.25;;;;;8.13;100.00;102693.53;5034939;28;45637;-74
2023/01/28 09:44:25;;;;;;;;;18.50;14.50;;;;;8.18;100.00;102697.31;5054766;28;45696;-74
2023/01/28 09:46:50;;;;;;;;;20.00;16.50;;;;;8.17;100.00;102692.88;5048597;28;45368;-77
2023/01/28 09:49:34;;;;;;;;;25.75;15.75;;;;;8.15;100.00;102686.66;5056178;28;56360;-75
2023/01/28 09:51:59;;;;;;;;;17.00;12.25;;;;;8.16;100.00;102688.44;5058191;28;45387;-75
2023/01/28 09:54:41;;;;;;;;;24.50;16.00;;;;;8.12;100.00;102699.63;5075288;28;59200;-76
2023/01/28 09:57:13;;;;;;;;;27.75;16.00;;;;;8.07;100.00;102687.97;5068476;28;45595;-76
2023/01/28 09:59:38;;;;;;;;;14.00;10.75;;;;;8.08;100.00;102697.66;5042613;28;45552;-74
2023/01/28 10:02:09;;;;;;;;;18.00;11.75;;;;;8.07;100.00;102696.75;5055240;28;52551;-72
2023/01/28 10:04:58;;;;;;;;;19.25;14.50;;;;;8.05;100.00;102695.78;5069745;28;46137;-72
2023/01/28 10:07:41;;;;;;;;;16.25;12.00;;;;;8.02;100.00;102694.72;5050311;28;45442;-71
2023/01/28 10:10:25;;;;;;;;;18.00;14.75;;;;;8.07;100.00;102709.91;5053262;28;45435;-72
2023/01/28 10:13:09;;;;;;;;;17.75;12.25;;;;;8.09;100.00;102707.34;5074968;28;45188;-71
2023/01/28 10:15:49;;;;;;;;;20.50;14.75;;;;;8.09;100.00;102708.25;5076015;28;45558;-71
2023/01/28 10:18:14;;;;;;;;;12.75;11.50;;;;;8.06;100.00;102702.84;5068128;27;45536;-72
2023/01/28 10:20:54;;;;;;;;;17.00;12.25;;;;;8.06;100.00;102709.84;5057933;28;45708;-74
2023/01/28 10:23:44;;;;;;;;;15.75;11.75;;;;;8.08;100.00;102713.44;5052871;28;45400;-76
2023/01/28 10:26:24;;;;;;;;;22.75;15.50;;;;;8.07;100.00;102720.44;5059843;28;45544;-73
2023/01/28 10:28:54;;;;;;;;;20.25;14.25;;;;;8.05;100.00;102718.56;5054515;28;45546;-70
2023/01/28 10:31:21;;;;;;;;;17.75;14.50;;;;;8.02;100.00;102715.78;5056569;28;45469;-76
2023/01/28 10:33:46;;;;;;;;;22.25;17.00;;;;;8.06;100.00;102718.66;5057137;28;45441;-72
2023/01/28 10:36:14;;;;;;;;;21.25;15.75;;;;;8.05;100.00;102721.19;5074898;28;55014;-71
2023/01/28 10:38:39;;;;;;;;;17.00;15.50;;;;;8.04;100.00;102732.53;5074046;28;45479;-71
2023/01/28 10:41:05;;;;;;;;;18.00;13.00;;;;;8.01;100.00;102729.75;5059829;27;47077;-71
2023/01/28 10:43:32;;;;;;;;;19.25;13.75;;;;;7.99;100.00;102729.69;5055125;28;45530;-71
2023/01/28 10:46:01;;;;;;;;;14.00;11.50;;;;;7.97;100.00;102730.41;5056059;28;47367;-71
2023/01/28 10:48:33;;;;;;;;;14.25;14.00;;;;;7.94;100.00;102743.41;5056535;28;45790;-71
2023/01/28 10:51:01;;;;;;;;;16.25;12.50;;;;;7.87;100.00;102732.56;5056012;28;47004;-73
2023/01/28 10:53:32;;;;;;;;;14.75;14.00;;;;;7.81;100.00;102732.22;5053586;28;45606;-70
2023/01/28 10:55:59;;;;;;;;;19.75;10.75;;;;;7.72;100.00;102723.84;5073422;28;46820;-70
2023/01/28 10:58:27;;;;;;;;;16.25;12.25;;;;;7.73;100.00;102733.56;5050491;28;57053;-72
2023/01/28 11:00:55;;;;;;;;;16.25;11.25;;;;;7.75;100.00;102736.28;5045405;28;45965;-74
2023/01/28 11:03:22;;;;;;;;;20.25;15.75;;;;;7.75;100.00;102731.91;5074333;28;45651;-72
2023/01/28 11:05:52;;;;;;;;;21.00;16.50;;;;;7.74;100.00;102727.50;5056476;28;45547;-70
2023/01/28 11:08:19;;;;;;;;;22.75;16.75;;;;;7.75;100.00;102728.38;5057961;28;45532;-71
2023/01/28 11:10:45;;;;;;;;;21.75;15.50;;;;;7.76;100.00;102719.66;5075259;28;45492;-70
2023/01/28 11:13:29;;;;;;;;;23.00;17.50;;;;;7.76;100.00;102723.19;5057945;28;45455;-71
2023/01/28 11:16:01;;;;;;;;;16.50;12.00;;;;;7.77;100.00;102718.84;5058115;28;45485;-70
2023/01/28 11:18:31;;;;;;;;;15.25;14.25;;;;;7.74;100.00;102708.19;5057226;28;45378;-71
2023/01/28 11:20:59;;;;;;;;;21.00;15.75;;;;;7.73;100.00;102712.53;5052821;28;45355;-71
2023/01/28 11:23:32;;;;;;;;;16.00;15.00;;;;;7.76;100.00;102709.16;5055233;28;45317;-70
2023/01/28 11:26:21;;;;;;;;;11.25;11.00;;;;;7.80;100.00;102722.53;5058880;28;45943;-71
2023/01/28 11:28:47;;;;;;;;;12.50;11.50;;;;;7.79;100.00;102719.84;5046455;28;45382;-70
2023/01/28 11:31:14;;;;;;;;;19.50;15.25;;;;;7.77;100.00;102709.22;5057685;28;47044;-71
2023/01/28 11:33:48;;;;;;;;;20.50;10.75;;;;;7.77;100.00;102706.59;5071817;28;45487;-73
2023/01/28 11:36:15;;;;;;;;;17.25;14.00;;;;;7.80;100.00;102711.13;5056320;28;46558;-71
2023/01/28 11:39:15;;;;;;;;;15.25;15.00;;;;;7.77;100.00;102711.84;5071183;28;46653;-72
2023/01/28 11:41:40;;;;;;;;;21.00;14.25;;;;;7.77;100.00;102709.22;5050911;28;45502;-72
2023/01/28 11:44:17;;;;;;;;;14.50;12.25;;;;;7.80;100.00;102716.38;5055875;28;53865;-71